Time;durP1;ratioP1;P1;durP2;ratioP2;P2;SDS_P1;SDS_P2;PMS_P1;PMS_P2;Temp;Humidity;BMP_temperature;BMP_pressure;BME280_temperature;BME280_humidity;BME280_pressure;Samples;Min_cycle;Max_cycle;Signal;HPM_P1;HPM_P2
2020/12/17 00:00:46;;;;;;;80.13;29.80;;;6.10;99.90;;;;;;4370017;32;20159;-72
2020/12/17 00:03:12;;;;;;;77.40;29.30;;;6.00;99.90;;;;;;4378726;32;20169;-73
2020/12/17 00:05:39;;;;;;;86.83;30.30;;;6.00;99.90;;;;;;4368394;32;20149;-72
2020/12/17 00:08:06;;;;;;;82.53;30.00;;;6.00;99.90;;;;;;4377101;32;20148;-72
2020/12/17 00:10:32;;;;;;;79.67;29.40;;;6.10;99.90;;;;;;4376494;32;20153;-72
2020/12/17 00:12:58;;;;;;;80.93;29.37;;;6.00;99.90;;;;;;4371595;32;20206;-72
2020/12/17 00:15:25;;;;;;;86.47;30.93;;;6.00;99.90;;;;;;4378533;32;20531;-72
2020/12/17 00:17:52;;;;;;;83.20;30.93;;;6.00;99.90;;;;;;4367408;32;20236;-72
2020/12/17 00:20:23;;;;;;;81.70;29.63;;;6.00;99.90;;;;;;4377261;32;20541;-72
2020/12/17 00:22:50;;;;;;;83.07;30.77;;;6.00;99.90;;;;;;4369371;32;20232;-73
2020/12/17 00:25:20;;;;;;;84.87;31.40;;;6.00;99.90;;;;;;4370244;32;20145;-73
2020/12/17 00:27:46;;;;;;;87.37;31.20;;;6.00;99.90;;;;;;4374920;32;20154;-72
2020/12/17 00:30:15;;;;;;;88.83;30.67;;;6.00;99.90;;;;;;4376782;32;20151;-73
2020/12/17 00:32:43;;;;;;;87.60;30.27;;;6.00;99.90;;;;;;4368344;32;20165;-72
2020/12/17 00:35:12;;;;;;;98.27;32.57;;;6.00;99.90;;;;;;4376052;32;20156;-73
2020/12/17 00:37:39;;;;;;;89.90;31.27;;;6.00;99.90;;;;;;4369844;32;20153;-73
2020/12/17 00:40:08;;;;;;;94.77;32.13;;;6.00;99.90;;;;;;4374811;32;20159;-73
2020/12/17 00:42:41;;;;;;;92.53;33.00;;;6.00;99.90;;;;;;4377933;32;20156;-72
2020/12/17 00:45:08;;;;;;;89.83;31.57;;;6.00;99.90;;;;;;4369933;32;20214;-72
2020/12/17 00:47:35;;;;;;;95.83;31.57;;;6.00;99.90;;;;;;4370260;32;20190;-73
2020/12/17 00:50:04;;;;;;;96.67;32.40;;;6.00;99.90;;;;;;4374538;32;20389;-73
2020/12/17 00:52:30;;;;;;;95.47;32.93;;;6.00;99.90;;;;;;4378367;32;20143;-72
2020/12/17 00:54:56;;;;;;;97.30;32.63;;;6.00;99.90;;;;;;4367699;32;20208;-73
2020/12/17 00:57:28;;;;;;;105.17;34.07;;;6.00;99.90;;;;;;4378341;32;20177;-72
2020/12/17 00:59:55;;;;;;;98.00;33.33;;;6.00;99.90;;;;;;4368007;32;20234;-72
2020/12/17 01:02:21;;;;;;;97.87;31.40;;;6.00;99.90;;;;;;4375925;32;20454;-72
2020/12/17 01:04:48;;;;;;;102.63;34.67;;;6.00;99.90;;;;;;4379772;32;20181;-72
2020/12/17 01:07:15;;;;;;;102.90;33.57;;;6.00;99.90;;;;;;4376963;32;20171;-71
2020/12/17 01:09:42;;;;;;;114.17;34.40;;;6.00;99.90;;;;;;4379695;32;20429;-71
2020/12/17 01:12:08;;;;;;;113.27;34.63;;;6.00;99.90;;;;;;4368173;32;20235;-71
2020/12/17 01:14:35;;;;;;;123.43;36.20;;;6.00;99.90;;;;;;4377461;32;20183;-72
2020/12/17 01:17:04;;;;;;;114.33;34.53;;;6.00;99.90;;;;;;4374923;32;20215;-71
2020/12/17 01:19:31;;;;;;;108.60;35.10;;;5.90;99.90;;;;;;4373839;32;20191;-71
2020/12/17 01:21:58;;;;;;;103.87;33.63;;;5.90;99.90;;;;;;4370311;32;20169;-72
2020/12/17 01:24:24;;;;;;;100.23;32.80;;;5.90;99.90;;;;;;4379080;32;20142;-73
2020/12/17 01:26:55;;;;;;;106.10;33.33;;;5.90;99.90;;;;;;4377354;32;20502;-73
2020/12/17 01:29:23;;;;;;;101.10;32.00;;;5.90;99.90;;;;;;4373122;32;20210;-73
2020/12/17 01:31:50;;;;;;;94.37;31.97;;;5.90;99.90;;;;;;4380976;32;20221;-73
2020/12/17 01:34:17;;;;;;;103.87;33.67;;;5.90;99.90;;;;;;4368397;32;20230;-73
2020/12/17 01:36:43;;;;;;;100.37;32.73;;;5.90;99.90;;;;;;4378189;32;20348;-73
2020/12/17 01:39:10;;;;;;;98.70;33.70;;;5.90;99.90;;;;;;4371877;32;20148;-73
2020/12/17 01:41:36;;;;;;;98.77;33.27;;;5.90;99.90;;;;;;4380040;32;20510;-73
2020/12/17 01:44:04;;;;;;;101.67;34.40;;;5.90;99.90;;;;;;4369693;32;20153;-74
2020/12/17 01:46:31;;;;;;;109.50;34.30;;;5.90;99.90;;;;;;4380190;32;20144;-73
2020/12/17 01:49:01;;;;;;;108.40;35.03;;;5.90;99.90;;;;;;4376359;32;20142;-72
2020/12/17 01:51:28;;;;;;;111.73;34.97;;;5.90;99.90;;;;;;4373136;32;20202;-73
2020/12/17 01:53:55;;;;;;;112.97;37.20;;;6.00;99.90;;;;;;4370403;32;20207;-72
2020/12/17 01:56:26;;;;;;;118.90;35.63;;;5.90;99.90;;;;;;4379839;32;20541;-73
2020/12/17 01:59:11;;;;;;;112.87;37.30;;;5.90;99.90;;;;;;4380702;32;20151;-73
2020/12/17 02:01:43;;;;;;;107.90;35.53;;;5.90;99.90;;;;;;4375617;32;20483;-73
2020/12/17 02:04:09;;;;;;;110.10;36.50;;;5.90;99.90;;;;;;4368735;32;20202;-72
2020/12/17 02:06:36;;;;;;;117.87;35.83;;;5.90;99.90;;;;;;4379982;32;20191;-72
2020/12/17 02:09:04;;;;;;;109.37;35.67;;;5.90;99.90;;;;;;4375742;32;20450;-74
2020/12/17 02:11:31;;;;;;;109.07;34.50;;;5.90;99.90;;;;;;4373197;32;20175;-73
2020/12/17 02:13:57;;;;;;;98.20;33.50;;;5.90;99.90;;;;;;4379971;32;20170;-74
2020/12/17 02:16:24;;;;;;;104.03;33.87;;;5.90;99.90;;;;;;4367920;32;20152;-73
2020/12/17 02:18:52;;;;;;;107.37;34.57;;;5.90;99.90;;;;;;4378170;32;20170;-73
2020/12/17 02:21:20;;;;;;;98.63;34.33;;;5.90;99.90;;;;;;4373198;32;20551;-74
2020/12/17 02:23:47;;;;;;;108.53;35.37;;;6.00;99.90;;;;;;4380134;32;20140;-73
2020/12/17 02:26:14;;;;;;;111.10;35.70;;;5.90;99.90;;;;;;4369391;32;20148;-73
2020/12/17 02:28:41;;;;;;;115.10;36.17;;;5.90;99.90;;;;;;4376648;32;20152;-73
2020/12/17 02:31:08;;;;;;;113.43;35.40;;;5.90;99.90;;;;;;4371898;32;20144;-72
2020/12/17 02:33:35;;;;;;;118.20;36.10;;;5.80;99.90;;;;;;4381396;32;20156;-72
2020/12/17 02:36:01;;;;;;;110.60;35.43;;;5.80;99.90;;;;;;4369116;32;20402;-73
2020/12/17 02:38:27;;;;;;;112.37;35.60;;;5.80;99.90;;;;;;4378544;32;20148;-73
2020/12/17 02:40:54;;;;;;;109.83;35.77;;;5.90;99.90;;;;;;4376439;32;20231;-73
2020/12/17 02:43:20;;;;;;;106.23;35.47;;;5.80;99.90;;;;;;4371638;32;20226;-71
2020/12/17 02:45:48;;;;;;;112.33;35.97;;;5.80;99.90;;;;;;4379817;32;20487;-72
2020/12/17 02:48:16;;;;;;;111.27;35.07;;;5.80;99.90;;;;;;4368906;32;20482;-72
2020/12/17 02:50:44;;;;;;;107.17;35.43;;;5.80;99.90;;;;;;4367614;32;20562;-72
2020/12/17 02:53:11;;;;;;;97.87;33.80;;;5.80;99.90;;;;;;4373593;32;20214;-72
2020/12/17 02:55:38;;;;;;;95.33;33.70;;;5.80;99.90;;;;;;4373127;32;20421;-72
2020/12/17 02:58:06;;;;;;;103.67;35.00;;;5.80;99.90;;;;;;4381139;32;20223;-72
2020/12/17 03:00:33;;;;;;;98.10;35.20;;;5.80;99.90;;;;;;4367179;32;20144;-73
2020/12/17 03:03:00;;;;;;;101.77;34.30;;;5.80;99.90;;;;;;4375097;32;20239;-73
2020/12/17 03:05:26;;;;;;;104.20;35.30;;;5.80;99.90;;;;;;4372002;32;20152;-72
2020/12/17 03:07:53;;;;;;;100.30;34.03;;;5.80;99.90;;;;;;4379518;32;20246;-73
2020/12/17 03:10:20;;;;;;;100.80;35.20;;;5.80;99.90;;;;;;4367128;32;20422;-73
2020/12/17 03:12:47;;;;;;;103.53;35.03;;;5.70;99.90;;;;;;4377663;32;20174;-73
2020/12/17 03:15:14;;;;;;;105.23;36.97;;;5.70;99.90;;;;;;4373051;32;20203;-74
2020/12/17 03:17:41;;;;;;;98.83;34.43;;;5.70;99.90;;;;;;4376477;32;20181;-74
2020/12/17 03:20:10;;;;;;;93.20;33.90;;;5.70;99.90;;;;;;4375796;32;20210;-73
2020/12/17 03:22:37;;;;;;;104.67;35.73;;;5.80;99.90;;;;;;4376922;32;20223;-73
2020/12/17 03:25:09;;;;;;;107.63;36.00;;;5.80;99.90;;;;;;4369281;32;20171;-73
2020/12/17 03:27:36;;;;;;;99.43;35.30;;;5.80;99.90;;;;;;4372712;32;20516;-73
2020/12/17 03:30:05;;;;;;;102.87;35.80;;;5.80;99.90;;;;;;4375425;32;20174;-72
2020/12/17 03:32:32;;;;;;;116.23;37.70;;;5.80;99.90;;;;;;4377262;32;20223;-72
2020/12/17 03:34:59;;;;;;;110.33;36.83;;;5.80;99.90;;;;;;4368317;32;20183;-72
2020/12/17 03:37:25;;;;;;;111.67;36.13;;;5.80;99.90;;;;;;4380381;32;20145;-72
2020/12/17 03:39:52;;;;;;;111.87;36.83;;;5.80;99.90;;;;;;4369004;32;20216;-72
2020/12/17 03:42:18;;;;;;;108.27;38.47;;;5.80;99.90;;;;;;4376603;32;20160;-73
2020/12/17 03:44:45;;;;;;;119.73;37.93;;;5.80;99.90;;;;;;4376064;32;20220;-73
2020/12/17 03:47:12;;;;;;;121.53;38.97;;;5.80;99.90;;;;;;4369828;32;20522;-72
2020/12/17 03:49:38;;;;;;;120.60;38.47;;;5.70;99.90;;;;;;4380377;32;20151;-72
2020/12/17 03:52:05;;;;;;;121.40;39.10;;;5.80;99.90;;;;;;4369160;32;20474;-73
2020/12/17 03:54:31;;;;;;;119.90;38.57;;;5.80;99.90;;;;;;4377950;32;20169;-72
2020/12/17 03:56:57;;;;;;;117.97;39.37;;;5.70;99.90;;;;;;4375505;32;20149;-72
2020/12/17 03:59:24;;;;;;;121.73;40.00;;;5.70;99.90;;;;;;4372248;32;20175;-72
2020/12/17 04:01:50;;;;;;;120.97;38.93;;;5.60;99.90;;;;;;4378567;32;20161;-72
2020/12/17 04:04:17;;;;;;;118.97;38.90;;;5.60;99.90;;;;;;4367077;32;20158;-72
2020/12/17 04:06:43;;;;;;;122.33;38.93;;;5.60;99.90;;;;;;4377431;32;20429;-72
2020/12/17 04:09:09;;;;;;;122.37;38.63;;;5.60;99.90;;;;;;4369565;32;20162;-72
2020/12/17 04:11:36;;;;;;;121.73;38.53;;;5.60;99.90;;;;;;4378719;32;20396;-72
2020/12/17 04:14:02;;;;;;;115.03;37.50;;;5.60;99.90;;;;;;4368679;32;20223;-72
2020/12/17 04:16:28;;;;;;;115.87;38.80;;;5.60;99.90;;;;;;4378903;32;20271;-71
2020/12/17 04:18:55;;;;;;;122.03;39.70;;;5.60;99.90;;;;;;4376115;32;20186;-71
2020/12/17 04:21:21;;;;;;;124.13;40.70;;;5.60;99.90;;;;;;4370370;32;20492;-72
2020/12/17 04:23:48;;;;;;;118.87;38.73;;;5.60;99.90;;;;;;4378707;32;20148;-73
2020/12/17 04:26:15;;;;;;;111.20;38.43;;;5.50;99.90;;;;;;4366433;32;20171;-72
2020/12/17 04:28:41;;;;;;;117.67;37.30;;;5.50;99.90;;;;;;4380044;32;20436;-71
2020/12/17 04:31:08;;;;;;;116.00;38.27;;;5.50;99.90;;;;;;4373285;32;20152;-71
2020/12/17 04:33:34;;;;;;;116.23;39.17;;;5.50;99.90;;;;;;4371658;32;20174;-72
2020/12/17 04:36:01;;;;;;;120.53;38.73;;;5.50;99.90;;;;;;4378355;32;20152;-72
2020/12/17 04:38:28;;;;;;;115.37;38.73;;;5.50;99.90;;;;;;4365597;32;20490;-70
2020/12/17 04:40:55;;;;;;;104.57;36.63;;;5.50;99.90;;;;;;4376062;32;20173;-70
2020/12/17 04:43:21;;;;;;;107.80;37.40;;;5.50;99.90;;;;;;4368526;32;20152;-70
2020/12/17 04:45:48;;;;;;;109.60;37.10;;;5.60;99.90;;;;;;4383550;32;20153;-70
2020/12/17 04:48:17;;;;;;;115.87;39.07;;;5.50;99.90;;;;;;4369405;32;20164;-71
2020/12/17 04:50:45;;;;;;;115.77;38.70;;;5.50;99.90;;;;;;4365936;32;20144;-72
2020/12/17 04:53:14;;;;;;;112.43;37.47;;;5.50;99.90;;;;;;4375713;32;20206;-72
2020/12/17 04:55:41;;;;;;;109.37;37.23;;;5.50;99.90;;;;;;4376690;32;20167;-73
2020/12/17 04:58:09;;;;;;;110.33;37.83;;;5.50;99.90;;;;;;4380808;32;20203;-72
2020/12/17 05:00:41;;;;;;;103.33;36.90;;;5.50;99.90;;;;;;4370314;32;20177;-72
2020/12/17 05:03:13;;;;;;;106.90;37.57;;;5.60;99.90;;;;;;4381749;32;20151;-71
2020/12/17 05:05:40;;;;;;;101.00;35.87;;;5.60;99.90;;;;;;4372577;32;20191;-72
2020/12/17 05:08:06;;;;;;;104.33;35.83;;;5.50;99.90;;;;;;4377676;32;20368;-71
2020/12/17 05:10:33;;;;;;;96.73;33.70;;;5.50;99.90;;;;;;4379439;32;20170;-72
2020/12/17 05:12:59;;;;;;;94.73;33.93;;;5.50;99.90;;;;;;4370771;32;20532;-72
2020/12/17 05:15:26;;;;;;;94.77;33.77;;;5.50;99.90;;;;;;4380962;32;20483;-72
2020/12/17 05:17:53;;;;;;;100.07;35.43;;;5.50;99.90;;;;;;4372634;32;20233;-72
2020/12/17 05:20:19;;;;;;;97.70;35.30;;;5.40;99.90;;;;;;4378702;32;20236;-72
2020/12/17 05:22:46;;;;;;;99.37;34.50;;;5.40;99.90;;;;;;4377869;32;20152;-72
2020/12/17 05:25:16;;;;;;;102.00;34.73;;;5.50;99.90;;;;;;4373257;32;20467;-72
2020/12/17 05:27:42;;;;;;;89.20;33.07;;;5.40;99.90;;;;;;4380843;32;20168;-72
2020/12/17 05:30:09;;;;;;;82.07;32.03;;;5.40;99.90;;;;;;4370646;32;20179;-72
2020/12/17 05:32:36;;;;;;;90.33;32.90;;;5.40;99.90;;;;;;4378238;32;20614;-72
2020/12/17 05:35:04;;;;;;;84.90;34.17;;;5.50;99.90;;;;;;4370622;32;20174;-72
2020/12/17 05:37:31;;;;;;;85.10;34.50;;;5.50;99.90;;;;;;4380778;32;20416;-72
2020/12/17 05:40:02;;;;;;;84.53;32.63;;;5.50;99.90;;;;;;4370136;32;20137;-72
2020/12/17 05:42:28;;;;;;;85.60;32.70;;;5.50;99.90;;;;;;4377933;32;20160;-73
2020/12/17 05:44:55;;;;;;;90.60;33.37;;;5.50;99.90;;;;;;4370000;32;20349;-73
2020/12/17 05:47:21;;;;;;;93.13;32.40;;;5.50;99.90;;;;;;4381568;32;20193;-72
2020/12/17 05:49:48;;;;;;;95.37;33.17;;;5.50;99.90;;;;;;4372308;32;20161;-72
2020/12/17 05:52:20;;;;;;;97.33;34.93;;;5.50;99.90;;;;;;4377985;32;20144;-73
2020/12/17 05:54:50;;;;;;;85.07;32.67;;;5.40;99.90;;;;;;4369817;32;20156;-72
2020/12/17 05:57:18;;;;;;;84.77;31.97;;;5.40;99.90;;;;;;4374989;32;20144;-72
2020/12/17 06:00:04;;;;;;;87.50;33.80;;;5.40;99.90;;;;;;4374578;32;20215;-72
2020/12/17 06:02:32;;;;;;;81.97;32.40;;;5.40;99.90;;;;;;4380223;32;20180;-73
2020/12/17 06:05:09;;;;;;;82.60;33.00;;;5.50;99.90;;;;;;4370881;32;20144;-72
2020/12/17 06:07:45;;;;;;;80.53;31.80;;;5.50;99.90;;;;;;4381933;32;20170;-72
2020/12/17 06:10:22;;;;;;;71.93;29.47;;;5.40;99.90;;;;;;4369443;32;20212;-73
2020/12/17 06:12:51;;;;;;;79.13;31.73;;;5.30;99.90;;;;;;4377940;32;20170;-73
2020/12/17 06:15:20;;;;;;;78.57;31.17;;;5.30;99.90;;;;;;4371834;32;20221;-72
2020/12/17 06:17:55;;;;;;;79.00;30.33;;;5.40;99.90;;;;;;4371559;32;20148;-72
2020/12/17 06:20:24;;;;;;;85.17;29.93;;;5.40;99.90;;;;;;4365790;32;20440;-73
2020/12/17 06:22:52;;;;;;;73.70;30.30;;;5.40;99.90;;;;;;4377845;32;20164;-73
2020/12/17 06:25:21;;;;;;;74.53;29.13;;;5.30;99.90;;;;;;4372214;32;20239;-73
2020/12/17 06:27:48;;;;;;;80.00;30.43;;;5.30;99.90;;;;;;4380070;32;20545;-72
2020/12/17 06:30:19;;;;;;;78.13;31.10;;;5.30;99.90;;;;;;4367283;32;20167;-73
2020/12/17 06:32:46;;;;;;;77.23;31.13;;;5.30;99.90;;;;;;4368019;32;20176;-73
2020/12/17 06:35:22;;;;;;;74.73;30.00;;;5.30;99.90;;;;;;4373736;32;20186;-72
2020/12/17 06:37:51;;;;;;;76.93;29.60;;;5.20;99.90;;;;;;4374684;32;20196;-72
2020/12/17 06:40:36;;;;;;;78.67;29.50;;;5.30;99.90;;;;;;4366850;32;20152;-72
2020/12/17 06:43:03;;;;;;;81.63;29.77;;;5.30;99.90;;;;;;4374217;32;20196;-72
2020/12/17 06:45:34;;;;;;;78.57;30.10;;;5.30;99.90;;;;;;4372406;32;20577;-73
2020/12/17 06:48:30;;;;;;;73.20;28.93;;;5.30;99.90;;;;;;4379840;32;20166;-71
2020/12/17 06:50:57;;;;;;;78.90;30.20;;;5.40;99.90;;;;;;4370672;32;20156;-71
2020/12/17 06:53:40;;;;;;;78.97;30.53;;;5.40;99.90;;;;;;4372438;32;20176;-74
2020/12/17 06:56:15;;;;;;;69.57;28.33;;;5.40;99.90;;;;;;4376329;32;20556;-74
2020/12/17 06:58:41;;;;;;;71.83;28.83;;;5.40;99.90;;;;;;4364271;32;20264;-73
2020/12/17 07:01:25;;;;;;;74.53;29.70;;;5.40;99.90;;;;;;4362817;32;20593;-74
2020/12/17 07:03:52;;;;;;;68.60;28.67;;;5.40;99.90;;;;;;4364177;32;20163;-73
2020/12/17 07:06:24;;;;;;;74.17;29.27;;;5.40;99.90;;;;;;4365674;32;20132;-74
2020/12/17 07:08:58;;;;;;;72.50;30.03;;;5.40;99.90;;;;;;4364717;32;20145;-74
2020/12/17 07:11:41;;;;;;;70.50;28.17;;;5.40;99.90;;;;;;4365568;32;20162;-75
2020/12/17 07:14:29;;;;;;;73.87;29.03;;;5.40;99.90;;;;;;4364432;32;20161;-74
2020/12/17 07:16:58;;;;;;;70.80;28.37;;;5.40;99.90;;;;;;4332335;33;20454;-74
2020/12/17 07:19:26;;;;;;;71.17;28.30;;;5.30;99.90;;;;;;4332897;33;20152;-73
2020/12/17 07:21:58;;;;;;;78.07;28.90;;;5.40;99.90;;;;;;4332241;33;20191;-75
2020/12/17 07:24:27;;;;;;;69.70;28.27;;;5.40;99.90;;;;;;4333035;33;20488;-74
2020/12/17 07:26:57;;;;;;;67.53;27.27;;;5.50;99.90;;;;;;4333473;33;20442;-73
2020/12/17 07:29:41;;;;;;;67.13;27.97;;;5.40;99.90;;;;;;4333079;33;20220;-73
2020/12/17 07:32:35;;;;;;;68.13;27.90;;;5.40;99.90;;;;;;4332633;33;20141;-74
2020/12/17 07:35:07;;;;;;;66.10;27.13;;;5.40;99.90;;;;;;4333382;33;20179;-74
2020/12/17 07:37:37;;;;;;;69.70;27.33;;;5.40;99.90;;;;;;4332522;33;20145;-73
2020/12/17 07:40:15;;;;;;;66.23;27.33;;;5.40;99.90;;;;;;4332449;33;20214;-73
2020/12/17 07:42:54;;;;;;;62.20;26.23;;;5.40;99.90;;;;;;4333253;33;20410;-72
2020/12/17 07:45:36;;;;;;;66.20;26.83;;;5.50;99.90;;;;;;4332647;33;20446;-73
2020/12/17 07:48:03;;;;;;;64.50;25.83;;;5.60;99.90;;;;;;4332745;33;20422;-73
2020/12/17 07:50:37;;;;;;;60.47;25.47;;;5.60;99.90;;;;;;4332280;33;20236;-73
2020/12/17 07:53:24;;;;;;;63.70;26.10;;;5.60;99.90;;;;;;4335068;33;20215;-74
2020/12/17 07:55:54;;;;;;;63.23;24.73;;;5.50;99.90;;;;;;4364057;32;20172;-72
2020/12/17 07:58:21;;;;;;;56.40;23.80;;;5.50;99.90;;;;;;4365703;32;20148;-73
2020/12/17 08:00:47;;;;;;;61.47;26.07;;;5.50;99.90;;;;;;4363719;32;20432;-73
2020/12/17 08:03:13;;;;;;;59.47;25.10;;;5.40;99.90;;;;;;4363585;32;20209;-74
2020/12/17 08:05:40;;;;;;;56.77;23.97;;;5.30;99.90;;;;;;4363887;32;20180;-73
2020/12/17 08:08:06;;;;;;;56.57;24.33;;;5.30;99.90;;;;;;4363956;32;20206;-73
2020/12/17 08:10:39;;;;;;;56.63;24.37;;;5.30;99.90;;;;;;4363903;32;20404;-72
2020/12/17 08:13:06;;;;;;;55.13;23.37;;;5.40;99.90;;;;;;4364271;32;20140;-73
2020/12/17 08:15:33;;;;;;;56.83;24.63;;;5.50;99.90;;;;;;4363803;32;20488;-72
2020/12/17 08:18:00;;;;;;;54.50;23.80;;;5.60;99.90;;;;;;4363916;32;20494;-72
2020/12/17 08:20:26;;;;;;;58.63;24.43;;;5.60;99.90;;;;;;4363566;33;20136;-73
2020/12/17 08:22:53;;;;;;;55.37;24.47;;;5.60;99.90;;;;;;4364838;33;20148;-73
2020/12/17 08:25:20;;;;;;;55.43;24.80;;;5.50;99.90;;;;;;4363863;32;20172;-73
2020/12/17 08:27:47;;;;;;;55.37;23.40;;;5.50;99.90;;;;;;4367477;32;20436;-72
2020/12/17 08:30:17;;;;;;;56.83;24.93;;;5.60;99.90;;;;;;4366954;32;20144;-73
2020/12/17 08:32:48;;;;;;;54.57;24.57;;;5.70;99.90;;;;;;4366976;32;20182;-72
2020/12/17 08:35:21;;;;;;;57.03;24.93;;;5.60;99.90;;;;;;4369024;32;20215;-71
2020/12/17 08:37:53;;;;;;;58.03;25.10;;;5.70;99.90;;;;;;4368839;32;20471;-71
2020/12/17 08:40:26;;;;;;;62.57;25.90;;;5.60;99.90;;;;;;4367135;32;20158;-73
2020/12/17 08:43:03;;;;;;;58.83;25.20;;;5.60;99.90;;;;;;4366784;32;20238;-73
2020/12/17 08:45:30;;;;;;;62.07;26.30;;;5.60;99.90;;;;;;4367692;32;20433;-73
2020/12/17 08:48:00;;;;;;;59.00;25.47;;;5.70;99.90;;;;;;4366646;32;20194;-72
2020/12/17 08:50:28;;;;;;;62.07;26.37;;;5.70;99.90;;;;;;4366658;32;20182;-72
2020/12/17 08:52:54;;;;;;;62.27;26.63;;;5.70;99.90;;;;;;4365221;32;20152;-73
2020/12/17 08:55:23;;;;;;;63.07;26.83;;;5.70;99.90;;;;;;4372079;32;20165;-73
2020/12/17 08:57:50;;;;;;;58.30;26.87;;;5.60;99.90;;;;;;4378448;32;20188;-74
2020/12/17 09:00:21;;;;;;;67.27;27.63;;;5.60;99.90;;;;;;4379105;32;20508;-73
2020/12/17 09:02:47;;;;;;;63.50;26.93;;;5.60;99.90;;;;;;4380199;32;20163;-73
2020/12/17 09:05:16;;;;;;;65.30;27.67;;;5.60;99.90;;;;;;4380444;32;20175;-74
2020/12/17 09:07:46;;;;;;;64.43;27.20;;;5.70;99.90;;;;;;4381882;32;20151;-73
2020/12/17 09:10:16;;;;;;;62.50;27.40;;;5.70;99.90;;;;;;4380890;32;20144;-74
2020/12/17 09:12:44;;;;;;;60.13;27.00;;;5.70;99.90;;;;;;4381285;32;20148;-73
2020/12/17 09:15:14;;;;;;;66.97;28.27;;;5.70;99.90;;;;;;4380931;32;20196;-73
2020/12/17 09:17:41;;;;;;;65.83;29.13;;;5.70;99.90;;;;;;4382458;32;20223;-74
2020/12/17 09:20:15;;;;;;;62.17;26.33;;;5.70;99.90;;;;;;4380877;32;20153;-73
2020/12/17 09:22:41;;;;;;;63.80;27.10;;;5.80;99.90;;;;;;4380924;32;20152;-73
2020/12/17 09:25:08;;;;;;;62.83;27.77;;;5.80;99.90;;;;;;4380925;32;20178;-73
2020/12/17 09:27:36;;;;;;;60.77;26.87;;;5.80;99.90;;;;;;4380815;32;20144;-73
2020/12/17 09:30:15;;;;;;;59.27;26.37;;;5.80;99.90;;;;;;4380920;32;20159;-73
2020/12/17 09:32:51;;;;;;;60.10;28.17;;;5.80;99.90;;;;;;4382484;32;20143;-74
2020/12/17 09:35:17;;;;;;;63.33;27.10;;;5.90;99.90;;;;;;4382658;32;20397;-72
2020/12/17 09:38:06;;;;;;;59.47;27.83;;;5.90;99.90;;;;;;4380520;32;20200;-74
2020/12/17 09:40:34;;;;;;;58.50;26.40;;;5.90;99.90;;;;;;4380800;32;20163;-73
2020/12/17 09:43:13;;;;;;;61.87;26.90;;;6.00;99.90;;;;;;4380669;32;20227;-72
2020/12/17 09:45:43;;;;;;;60.60;26.57;;;6.00;99.90;;;;;;4380720;32;20224;-72
2020/12/17 09:48:15;;;;;;;55.97;25.63;;;6.10;99.90;;;;;;4382170;32;20507;-72
2020/12/17 09:50:55;;;;;;;54.47;25.50;;;6.10;99.90;;;;;;4380664;32;20157;-74
2020/12/17 09:53:23;;;;;;;56.37;26.27;;;6.00;99.90;;;;;;4380557;32;20133;-75
2020/12/17 09:55:50;;;;;;;58.60;25.93;;;6.00;99.90;;;;;;4380470;32;20187;-74
2020/12/17 09:58:16;;;;;;;54.27;25.60;;;6.00;99.90;;;;;;4381872;32;20140;-74
2020/12/17 10:00:43;;;;;;;57.13;25.03;;;6.00;99.90;;;;;;4381847;32;20175;-73
2020/12/17 10:03:10;;;;;;;57.50;25.43;;;6.00;99.90;;;;;;4380414;32;20209;-73
2020/12/17 10:05:37;;;;;;;59.43;26.33;;;6.00;99.90;;;;;;4380703;32;20459;-73
2020/12/17 10:08:04;;;;;;;56.03;25.87;;;5.90;99.90;;;;;;4381772;32;20145;-72
2020/12/17 10:10:30;;;;;;;54.63;24.40;;;5.90;99.90;;;;;;4380515;32;20227;-75
2020/12/17 10:12:59;;;;;;;57.57;26.27;;;6.00;99.90;;;;;;4380479;32;20170;-74
2020/12/17 10:15:26;;;;;;;58.90;26.53;;;6.00;99.90;;;;;;4380132;32;20176;-72
2020/12/17 10:17:54;;;;;;;61.40;26.10;;;6.00;99.90;;;;;;4380259;32;20132;-73
2020/12/17 10:20:22;;;;;;;60.37;25.93;;;6.00;99.90;;;;;;4379953;32;20148;-73
2020/12/17 10:22:49;;;;;;;53.80;25.00;;;6.00;99.90;;;;;;4380049;32;20487;-73
2020/12/17 10:25:17;;;;;;;59.47;25.73;;;6.10;99.90;;;;;;4379986;32;20401;-73
2020/12/17 10:27:44;;;;;;;59.63;25.50;;;6.20;99.90;;;;;;4380229;32;20500;-74
2020/12/17 10:30:11;;;;;;;58.53;26.43;;;6.20;99.90;;;;;;4380151;32;20393;-74
2020/12/17 10:32:38;;;;;;;56.20;25.83;;;6.20;99.90;;;;;;4380090;32;20526;-74
2020/12/17 10:35:06;;;;;;;56.53;26.50;;;6.20;99.90;;;;;;4380150;32;20198;-74
2020/12/17 10:37:32;;;;;;;60.10;26.63;;;6.10;99.90;;;;;;4381586;32;20145;-74
2020/12/17 10:39:59;;;;;;;58.23;26.73;;;6.10;99.90;;;;;;4380004;32;20440;-74
2020/12/17 10:42:25;;;;;;;54.03;25.27;;;6.20;99.90;;;;;;4381254;32;20233;-75
2020/12/17 10:44:52;;;;;;;60.87;26.27;;;6.10;99.90;;;;;;4379351;32;20160;-74
2020/12/17 10:47:18;;;;;;;59.07;25.87;;;6.10;99.90;;;;;;4380402;32;20200;-74
2020/12/17 10:49:46;;;;;;;65.20;27.53;;;6.10;99.90;;;;;;4379064;32;20427;-75
2020/12/17 10:52:14;;;;;;;62.83;27.27;;;6.10;99.90;;;;;;4381086;32;20510;-74
2020/12/17 10:54:40;;;;;;;64.73;27.33;;;6.10;99.90;;;;;;4381336;32;20226;-74
2020/12/17 10:57:07;;;;;;;64.83;26.97;;;6.20;99.90;;;;;;4379545;32;20144;-74
2020/12/17 10:59:33;;;;;;;64.77;26.80;;;6.10;99.90;;;;;;4381091;32;20218;-74
2020/12/17 11:02:00;;;;;;;63.37;28.03;;;6.20;99.90;;;;;;4380271;32;20252;-73
2020/12/17 11:04:27;;;;;;;66.40;27.03;;;6.20;99.90;;;;;;4380926;32;20160;-74
2020/12/17 11:06:57;;;;;;;65.37;27.27;;;6.20;99.90;;;;;;4379620;32;20453;-73
2020/12/17 11:09:28;;;;;;;63.70;27.27;;;6.20;99.90;;;;;;4379474;32;20141;-73
2020/12/17 11:11:55;;;;;;;66.87;26.90;;;6.20;99.90;;;;;;4380558;32;20459;-74
2020/12/17 11:14:21;;;;;;;64.93;27.10;;;6.20;99.90;;;;;;4379545;32;20499;-73
2020/12/17 11:16:48;;;;;;;68.90;28.20;;;6.20;99.90;;;;;;4380376;32;20528;-73
2020/12/17 11:19:15;;;;;;;66.77;28.63;;;6.10;99.90;;;;;;4380999;32;20144;-73
2020/12/17 11:21:42;;;;;;;73.50;28.93;;;6.10;99.90;;;;;;4379324;32;20167;-74
2020/12/17 11:24:09;;;;;;;65.77;27.40;;;6.10;99.90;;;;;;4379363;32;20472;-75
2020/12/17 11:26:46;;;;;;;70.30;29.03;;;6.10;99.90;;;;;;4380858;32;20140;-73
2020/12/17 11:29:13;;;;;;;68.87;29.23;;;6.00;99.90;;;;;;4379351;32;20492;-73
2020/12/17 11:31:44;;;;;;;68.73;28.40;;;6.00;99.90;;;;;;4380659;32;20187;-74
2020/12/17 11:34:12;;;;;;;66.37;28.27;;;6.00;99.90;;;;;;4379581;32;20154;-74
2020/12/17 11:36:40;;;;;;;76.43;30.07;;;6.10;99.90;;;;;;4365829;32;20187;-74
2020/12/17 11:39:06;;;;;;;73.83;28.93;;;6.10;99.90;;;;;;4380653;32;20470;-74
2020/12/17 11:41:33;;;;;;;80.57;31.30;;;6.20;99.90;;;;;;4379144;32;20143;-75
2020/12/17 11:44:00;;;;;;;72.83;29.07;;;6.20;99.90;;;;;;4380631;32;20188;-74
2020/12/17 11:46:26;;;;;;;68.77;29.43;;;6.30;99.90;;;;;;4380213;32;20182;-73
2020/12/17 11:48:53;;;;;;;73.00;29.17;;;6.20;99.90;;;;;;4379212;32;20454;-73
2020/12/17 11:51:19;;;;;;;69.67;27.73;;;6.20;99.90;;;;;;4378967;32;20458;-75
2020/12/17 11:53:45;;;;;;;68.90;28.73;;;6.20;99.90;;;;;;4379115;32;20136;-73
2020/12/17 11:56:13;;;;;;;70.47;30.17;;;6.20;99.90;;;;;;4379045;32;20138;-73
2020/12/17 11:58:42;;;;;;;67.67;28.37;;;6.30;99.90;;;;;;4379374;32;20221;-74
2020/12/17 12:01:10;;;;;;;63.87;28.73;;;6.30;99.90;;;;;;4378830;32;20216;-73
2020/12/17 12:03:36;;;;;;;69.53;28.97;;;6.30;99.90;;;;;;4378818;32;20167;-73
2020/12/17 12:06:04;;;;;;;71.33;28.57;;;6.40;99.90;;;;;;4379298;32;20156;-74
2020/12/17 12:08:30;;;;;;;70.80;28.30;;;6.30;99.90;;;;;;4379021;32;20223;-75
2020/12/17 12:10:58;;;;;;;70.90;27.93;;;6.40;99.90;;;;;;4379288;32;20144;-74
2020/12/17 12:13:24;;;;;;;71.43;29.00;;;6.50;99.90;;;;;;4379386;32;20165;-74
2020/12/17 12:15:51;;;;;;;67.00;27.47;;;6.50;99.90;;;;;;4380440;32;20179;-74
2020/12/17 12:18:17;;;;;;;69.73;29.47;;;6.50;99.90;;;;;;4379137;32;20396;-74
2020/12/17 12:20:45;;;;;;;70.80;28.47;;;6.50;99.90;;;;;;4379572;32;20178;-75
2020/12/17 12:23:16;;;;;;;75.33;28.30;;;6.50;99.90;;;;;;4379696;32;20177;-75
2020/12/17 12:25:43;;;;;;;72.50;28.47;;;6.50;99.90;;;;;;4378949;32;20144;-73
2020/12/17 12:28:11;;;;;;;67.57;28.53;;;6.50;99.90;;;;;;4380168;32;20194;-75
2020/12/17 12:30:38;;;;;;;72.70;29.67;;;6.50;99.90;;;;;;4378710;32;20153;-73
2020/12/17 12:33:04;;;;;;;68.87;29.40;;;6.50;99.90;;;;;;4380234;32;20159;-74
2020/12/17 12:35:31;;;;;;;74.50;30.70;;;6.40;99.90;;;;;;4379767;32;20562;-75
2020/12/17 12:37:57;;;;;;;71.80;29.47;;;6.40;99.90;;;;;;4378850;32;20396;-75
2020/12/17 12:40:23;;;;;;;72.43;30.40;;;6.40;99.90;;;;;;4378706;32;20210;-75